Weather at Korea Maritime & Ocean University Heliport

Public forecast

Using degrees Celsius for public forecast. Weather courtesy of forecast.io.

Closest aviation weather report (METAR) to Korea Maritime & Ocean University Heliport

Closest report is Gimhae International Airport, 9.7 nm (17.9 km) NW. Retrieved 2021/01/27 21:00 UTC (33 minutes ago):

RKPK 272100Z 36003KT CAVOK 02/M03 Q1016 RMK CIG180 SLP167 8/018 9/043

Closest aviation forecast (TAF) to Korea Maritime & Ocean University Heliport

Closest forecast is Gimhae International Airport, 9.7 nm (17.9 km) NW. Retrieved 2021/01/27 18:00 UTC (4 hours ago):

TAF RKPK 271700Z 2718/2824 33006KT CAVOK TX05/2806Z TNM06/2821Z BECMG 2803/2804 24010G20KT 9999 BKN030